createdAt,value
2023-04-22T00:00:24.263Z,0.00
2023-04-22T00:01:24.243Z,0.00
2023-04-22T00:02:24.304Z,0.00
2023-04-22T00:03:24.378Z,0.00
2023-04-22T00:04:24.386Z,0.00
2023-04-22T00:05:24.338Z,0.00
2023-04-22T00:06:24.231Z,0.00
2023-04-22T00:07:24.218Z,0.00
2023-04-22T00:08:24.208Z,0.00
2023-04-22T00:09:24.195Z,0.00
2023-04-22T00:10:24.190Z,0.00
2023-04-22T00:11:24.185Z,0.00
2023-04-22T00:12:24.173Z,0.00
2023-04-22T00:13:24.178Z,0.00
2023-04-22T00:14:24.159Z,0.00
2023-04-22T00:15:24.153Z,0.00
2023-04-22T00:16:24.241Z,0.00
2023-04-22T00:17:24.174Z,0.00
2023-04-22T00:18:24.140Z,0.00
2023-04-22T00:19:24.128Z,0.00
2023-04-22T00:20:24.127Z,0.00
2023-04-22T00:21:24.116Z,0.00
2023-04-22T00:22:24.111Z,0.00
2023-04-22T00:23:24.110Z,0.00
2023-04-22T00:24:24.094Z,0.00
2023-04-22T00:25:24.096Z,0.00
2023-04-22T00:26:24.098Z,0.00
2023-04-22T00:27:24.077Z,0.00
2023-04-22T00:28:24.074Z,0.00
2023-04-22T00:29:24.066Z,0.00
2023-04-22T00:30:24.057Z,0.00
2023-04-22T00:31:24.094Z,0.00
2023-04-22T00:32:24.061Z,0.00
2023-04-22T00:33:24.042Z,0.00
2023-04-22T00:34:24.030Z,0.00
2023-04-22T00:35:24.031Z,0.00
2023-04-22T00:36:24.016Z,0.00
2023-04-22T00:37:24.016Z,0.00
2023-04-22T00:38:24.002Z,0.00
2023-04-22T00:39:24.001Z,0.00
2023-04-22T00:40:23.994Z,0.00
2023-04-22T00:41:24.005Z,0.00
2023-04-22T00:42:23.979Z,0.00
2023-04-22T00:43:23.972Z,0.00
2023-04-22T00:44:23.956Z,0.00
2023-04-22T00:45:23.955Z,0.00
2023-04-22T00:46:24.018Z,0.00
2023-04-22T00:47:23.977Z,0.00
2023-04-22T00:48:25.179Z,0.00
2023-04-22T00:49:23.931Z,0.00
2023-04-22T00:50:23.934Z,0.00
2023-04-22T00:51:23.935Z,0.00
2023-04-22T00:52:23.902Z,0.00
2023-04-22T00:53:23.917Z,0.00
2023-04-22T00:54:23.903Z,0.00
2023-04-22T00:55:23.890Z,0.00
2023-04-22T00:56:23.881Z,0.00
2023-04-22T00:57:23.881Z,0.00
2023-04-22T00:58:23.879Z,0.00
2023-04-22T00:59:23.868Z,0.00
2023-04-22T01:00:23.861Z,0.00
2023-04-22T01:01:23.893Z,0.00
2023-04-22T01:02:23.873Z,0.00
2023-04-22T01:03:24.078Z,0.00
2023-04-22T01:04:23.918Z,0.00
2023-04-22T01:05:23.827Z,0.00
2023-04-22T01:06:23.825Z,0.00
2023-04-22T01:07:23.815Z,0.00
2023-04-22T01:08:23.807Z,0.00
2023-04-22T01:09:23.812Z,0.00
2023-04-22T01:10:23.798Z,0.00
2023-04-22T01:11:23.795Z,0.00
2023-04-22T01:12:23.803Z,0.00
2023-04-22T01:13:23.785Z,0.00
2023-04-22T01:14:23.779Z,0.00
2023-04-22T01:15:23.775Z,0.00
2023-04-22T01:16:23.823Z,0.00
2023-04-22T01:17:23.765Z,0.00
2023-04-22T01:18:23.757Z,0.00
2023-04-22T01:19:23.738Z,0.00
2023-04-22T01:20:23.735Z,0.00
2023-04-22T01:21:23.731Z,0.00
2023-04-22T01:22:23.719Z,0.00
2023-04-22T01:23:23.714Z,0.00
2023-04-22T01:24:23.714Z,0.00
2023-04-22T01:25:23.699Z,0.00
2023-04-22T01:26:23.695Z,0.00
2023-04-22T01:27:23.701Z,0.00
2023-04-22T01:28:23.683Z,0.00
2023-04-22T01:29:23.692Z,0.00
2023-04-22T01:30:23.671Z,0.00
2023-04-22T01:31:23.719Z,0.00
2023-04-22T01:32:23.825Z,0.00
2023-04-22T01:33:23.668Z,0.00
2023-04-22T01:34:23.644Z,0.00
2023-04-22T01:35:23.645Z,0.00
2023-04-22T01:36:23.634Z,0.00
2023-04-22T01:37:23.631Z,0.00
2023-04-22T01:38:23.619Z,0.00
2023-04-22T01:39:23.616Z,0.00
2023-04-22T01:40:23.604Z,0.00
2023-04-22T01:41:23.594Z,0.00
2023-04-22T01:42:23.597Z,0.00
2023-04-22T01:43:23.597Z,0.00
2023-04-22T01:44:23.646Z,0.00
2023-04-22T01:45:23.585Z,0.00
2023-04-22T01:46:23.589Z,0.00
2023-04-22T01:47:23.570Z,0.00
2023-04-22T01:48:23.558Z,0.00
2023-04-22T01:49:23.551Z,0.00
2023-04-22T01:50:23.549Z,0.00
2023-04-22T01:51:23.558Z,0.00
2023-04-22T01:52:23.542Z,0.00
2023-04-22T01:53:23.534Z,0.00
2023-04-22T01:54:23.521Z,0.00
2023-04-22T01:55:23.526Z,0.00
2023-04-22T01:56:23.507Z,0.00
2023-04-22T01:57:23.500Z,0.00
2023-04-22T01:58:23.500Z,0.00
2023-04-22T01:59:23.494Z,0.00
2023-04-22T02:00:23.482Z,0.00
2023-04-22T02:01:23.533Z,0.00
2023-04-22T02:02:23.603Z,0.00
2023-04-22T02:03:23.630Z,0.00
2023-04-22T02:04:23.465Z,0.00
2023-04-22T02:05:23.451Z,0.00
2023-04-22T02:06:23.445Z,0.00
2023-04-22T02:07:23.449Z,0.00
2023-04-22T02:08:23.437Z,0.00
2023-04-22T02:09:23.427Z,0.00
2023-04-22T02:10:23.423Z,0.00
2023-04-22T02:11:23.417Z,0.00
2023-04-22T02:12:23.412Z,0.00
2023-04-22T02:13:23.402Z,0.00
2023-04-22T02:14:23.409Z,0.00
2023-04-22T02:15:23.386Z,0.00
2023-04-22T02:16:23.441Z,0.00
2023-04-22T02:17:23.376Z,0.00
2023-04-22T02:18:23.370Z,0.00
2023-04-22T02:19:23.372Z,0.00
2023-04-22T02:20:23.355Z,0.00
2023-04-22T02:21:23.353Z,0.00
2023-04-22T02:22:23.350Z,0.00
2023-04-22T02:23:23.335Z,0.00
2023-04-22T02:24:23.327Z,0.00
2023-04-22T02:25:23.332Z,0.00
2023-04-22T02:26:23.322Z,0.00
2023-04-22T02:27:23.322Z,0.00
2023-04-22T02:28:23.320Z,0.00
2023-04-22T02:29:23.304Z,0.00
2023-04-22T02:30:23.302Z,0.00
2023-04-22T02:31:23.375Z,0.00
2023-04-22T02:32:23.311Z,0.00
2023-04-22T02:33:23.293Z,0.00
2023-04-22T02:34:23.278Z,0.00
2023-04-22T02:35:23.265Z,0.00
2023-04-22T02:36:23.256Z,0.00
2023-04-22T02:37:23.254Z,0.00
2023-04-22T02:38:23.247Z,0.00
2023-04-22T02:39:23.257Z,0.00
2023-04-22T02:40:23.236Z,0.00
2023-04-22T02:41:23.231Z,0.00
2023-04-22T02:42:23.228Z,0.00
2023-04-22T02:43:23.226Z,0.00
2023-04-22T02:44:23.223Z,0.00
2023-04-22T02:45:23.213Z,0.00
2023-04-22T02:46:23.256Z,0.00
2023-04-22T02:47:23.203Z,0.00
2023-04-22T02:48:23.189Z,0.00
2023-04-22T02:49:23.217Z,0.00
2023-04-22T02:50:23.179Z,0.00
2023-04-22T02:51:23.165Z,0.00
2023-04-22T02:52:23.166Z,0.00
2023-04-22T02:53:23.152Z,0.00
2023-04-22T02:54:23.162Z,0.00
2023-04-22T02:55:23.140Z,0.00
2023-04-22T02:56:23.131Z,0.00
2023-04-22T02:57:23.131Z,0.00
2023-04-22T02:58:23.125Z,0.00
2023-04-22T02:59:23.113Z,0.00
2023-04-22T03:00:23.122Z,0.00
2023-04-22T03:01:23.213Z,0.00
2023-04-22T03:02:23.221Z,0.00
2023-04-22T03:03:23.251Z,0.00
2023-04-22T03:04:23.273Z,0.00
2023-04-22T03:05:23.078Z,0.00
2023-04-22T03:06:23.080Z,0.00
2023-04-22T03:07:23.072Z,0.00
2023-04-22T03:08:23.059Z,0.00
2023-04-22T03:09:23.055Z,0.00
2023-04-22T03:10:23.069Z,0.00
2023-04-22T03:11:23.057Z,0.00
2023-04-22T03:12:23.041Z,0.00
2023-04-22T03:13:23.026Z,0.00
2023-04-22T03:14:23.024Z,0.00
2023-04-22T03:15:23.017Z,0.00
2023-04-22T03:16:23.090Z,0.00
2023-04-22T03:17:23.032Z,0.00
2023-04-22T03:18:23.004Z,0.00
2023-04-22T03:19:23.000Z,0.00
2023-04-22T03:20:22.993Z,0.00
2023-04-22T03:21:23.015Z,0.00
2023-04-22T03:22:22.987Z,0.00
2023-04-22T03:23:22.981Z,0.00
2023-04-22T03:24:22.959Z,0.00
2023-04-22T03:25:22.972Z,0.00
2023-04-22T03:26:22.952Z,0.00
2023-04-22T03:27:22.945Z,0.00
2023-04-22T03:28:22.940Z,0.00
2023-04-22T03:29:22.946Z,0.00
2023-04-22T03:30:22.934Z,0.00
2023-04-22T03:31:22.936Z,0.00
2023-04-22T03:32:22.960Z,0.00
2023-04-22T03:33:22.923Z,0.00
2023-04-22T03:34:22.922Z,0.00
2023-04-22T03:35:22.952Z,0.00
2023-04-22T03:36:22.895Z,0.00
2023-04-22T03:37:22.895Z,0.00
2023-04-22T03:38:22.883Z,0.00
2023-04-22T03:39:22.871Z,0.00
2023-04-22T03:40:22.865Z,0.00
2023-04-22T03:41:22.857Z,0.00
2023-04-22T03:42:22.854Z,0.00
2023-04-22T03:43:22.848Z,0.00
2023-04-22T03:44:22.839Z,0.00
2023-04-22T03:45:22.852Z,0.00
2023-04-22T03:46:22.873Z,0.00
2023-04-22T03:47:22.857Z,0.00
2023-04-22T03:48:22.812Z,0.00
2023-04-22T03:49:22.813Z,0.00
2023-04-22T03:50:22.822Z,0.00
2023-04-22T03:51:22.803Z,0.00
2023-04-22T03:52:22.784Z,0.00
2023-04-22T03:53:22.794Z,0.00
2023-04-22T03:54:22.782Z,0.00
2023-04-22T03:55:22.773Z,0.00
2023-04-22T03:56:22.771Z,0.00
2023-04-22T03:57:22.754Z,0.00
2023-04-22T03:58:22.765Z,0.00
2023-04-22T03:59:22.742Z,0.00
2023-04-22T04:00:22.778Z,0.00
2023-04-22T04:01:22.732Z,0.00
2023-04-22T04:02:22.875Z,0.00
2023-04-22T04:03:22.891Z,0.00
2023-04-22T04:04:22.907Z,4.00
2023-04-22T04:05:22.871Z,4.00
2023-04-22T04:06:22.703Z,0.00
2023-04-22T04:07:22.707Z,0.00
2023-04-22T04:08:22.692Z,4.00
2023-04-22T04:09:22.694Z,4.00
2023-04-22T04:10:22.707Z,4.00
2023-04-22T04:11:22.666Z,4.00
2023-04-22T04:12:22.660Z,4.00
2023-04-22T04:13:22.656Z,8.00
2023-04-22T04:14:22.650Z,8.00
2023-04-22T04:15:22.650Z,8.00
2023-04-22T04:16:22.837Z,8.00
2023-04-22T04:17:22.652Z,8.00
2023-04-22T04:18:22.626Z,12.00
2023-04-22T04:19:22.619Z,16.00
2023-04-22T04:20:22.629Z,16.00
2023-04-22T04:21:22.616Z,20.00
2023-04-22T04:22:22.602Z,20.00
2023-04-22T04:23:22.608Z,20.00
2023-04-22T04:24:22.589Z,24.00
2023-04-22T04:25:22.599Z,24.00
2023-04-22T04:26:22.577Z,24.00
2023-04-22T04:27:22.565Z,28.00
2023-04-22T04:28:22.561Z,28.00
2023-04-22T04:29:22.555Z,32.00
2023-04-22T04:30:22.555Z,32.00
2023-04-22T04:31:22.542Z,36.00
2023-04-22T04:32:22.606Z,36.00
2023-04-22T04:33:22.532Z,40.00
2023-04-22T04:34:22.514Z,44.00
2023-04-22T04:35:22.513Z,44.00
2023-04-22T04:36:22.507Z,48.00
2023-04-22T04:37:22.503Z,52.00
2023-04-22T04:38:22.500Z,56.00
2023-04-22T04:39:22.488Z,68.00
2023-04-22T04:40:22.492Z,72.00
2023-04-22T04:41:22.479Z,80.00
2023-04-22T04:42:22.464Z,84.00
2023-04-22T04:43:22.463Z,92.00
2023-04-22T04:44:22.466Z,104.00
2023-04-22T04:45:22.453Z,108.00
2023-04-22T04:46:22.456Z,116.00
2023-04-22T04:47:22.463Z,116.00
2023-04-22T04:48:22.426Z,120.00
2023-04-22T04:49:22.416Z,124.00
2023-04-22T04:50:22.419Z,136.00
2023-04-22T04:51:22.418Z,148.00
2023-04-22T04:52:22.458Z,160.00
2023-04-22T04:53:22.404Z,164.00
2023-04-22T04:54:22.406Z,172.00
2023-04-22T04:55:22.390Z,168.00
2023-04-22T04:56:22.395Z,168.00
2023-04-22T04:57:22.397Z,156.00
2023-04-22T04:58:22.359Z,156.00
2023-04-22T04:59:22.355Z,160.00
2023-04-22T05:00:22.348Z,160.00
2023-04-22T05:01:22.403Z,164.00
2023-04-22T05:02:22.553Z,164.00
2023-04-22T05:03:22.436Z,172.00
2023-04-22T05:04:22.457Z,180.00
2023-04-22T05:05:22.327Z,200.00
2023-04-22T05:06:22.327Z,208.00
2023-04-22T05:07:22.314Z,216.00
2023-04-22T05:08:22.317Z,232.00
2023-04-22T05:09:22.296Z,248.00
2023-04-22T05:10:22.303Z,268.00
2023-04-22T05:11:22.287Z,284.00
2023-04-22T05:12:22.285Z,304.00
2023-04-22T05:13:22.269Z,328.00
2023-04-22T05:14:22.288Z,360.00
2023-04-22T05:15:22.268Z,368.00
2023-04-22T05:16:22.274Z,380.00
2023-04-22T05:17:22.288Z,408.00
2023-04-22T05:18:22.257Z,428.00
2023-04-22T05:19:22.248Z,472.00
2023-04-22T05:20:22.237Z,512.00
2023-04-22T05:21:22.226Z,564.00
2023-04-22T05:22:22.223Z,592.00
2023-04-22T05:23:22.216Z,580.00
2023-04-22T05:24:22.203Z,608.00
2023-04-22T05:25:22.197Z,620.00
2023-04-22T05:26:22.201Z,612.00
2023-04-22T05:27:22.197Z,620.00
2023-04-22T05:28:22.178Z,660.00
2023-04-22T05:29:22.180Z,668.00
2023-04-22T05:30:22.188Z,684.00
2023-04-22T05:31:22.232Z,704.00
2023-04-22T05:32:22.205Z,740.00
2023-04-22T05:33:22.161Z,780.00
2023-04-22T05:34:22.153Z,784.00
2023-04-22T05:35:22.133Z,844.00
2023-04-22T05:36:22.131Z,892.00
2023-04-22T05:37:22.125Z,828.00
2023-04-22T05:38:22.134Z,836.00
2023-04-22T05:39:22.125Z,832.00
2023-04-22T05:40:22.109Z,804.00
2023-04-22T05:41:22.101Z,844.00
2023-04-22T05:42:22.095Z,928.00
2023-04-22T05:43:22.088Z,1004.00
2023-04-22T05:44:22.080Z,1100.00
2023-04-22T05:45:22.074Z,1136.00
2023-04-22T05:46:22.154Z,1124.00
2023-04-22T05:47:22.145Z,1124.00
2023-04-22T05:48:22.059Z,1128.00
2023-04-22T05:49:22.056Z,1108.00
2023-04-22T05:50:23.447Z,1064.00
2023-04-22T05:51:22.059Z,1048.00
2023-04-22T05:52:22.026Z,1060.00
2023-04-22T05:53:22.023Z,1068.00
2023-04-22T05:54:22.022Z,1064.00
2023-04-22T05:55:22.016Z,1048.00
2023-04-22T05:56:22.019Z,1024.00
2023-04-22T05:57:22.001Z,996.00
2023-04-22T05:58:21.999Z,964.00
2023-04-22T05:59:22.020Z,940.00
2023-04-22T06:00:21.984Z,916.00
2023-04-22T06:01:21.975Z,888.00
2023-04-22T06:02:22.100Z,852.00
2023-04-22T06:03:22.152Z,820.00
2023-04-22T06:04:22.257Z,804.00
2023-04-22T06:05:22.025Z,796.00
2023-04-22T06:06:21.944Z,768.00
2023-04-22T06:07:21.943Z,752.00
2023-04-22T06:08:21.920Z,756.00
2023-04-22T06:09:21.933Z,796.00
2023-04-22T06:10:21.933Z,852.00
2023-04-22T06:11:21.916Z,916.00
2023-04-22T06:12:21.903Z,980.00
2023-04-22T06:13:21.899Z,1048.00
2023-04-22T06:14:21.898Z,1116.00
2023-04-22T06:15:21.888Z,1152.00
2023-04-22T06:16:21.895Z,1196.00
2023-04-22T06:17:21.908Z,1240.00
2023-04-22T06:18:21.874Z,1300.00
2023-04-22T06:19:21.867Z,1328.00
2023-04-22T06:20:21.864Z,1364.00
2023-04-22T06:21:21.862Z,1396.00
2023-04-22T06:22:21.851Z,1424.00
2023-04-22T06:23:21.848Z,1428.00
2023-04-22T06:24:21.837Z,1404.00
2023-04-22T06:25:21.835Z,1348.00
2023-04-22T06:26:21.847Z,1316.00
2023-04-22T06:27:21.828Z,1296.00
2023-04-22T06:28:21.811Z,1280.00
2023-04-22T06:29:21.812Z,1232.00
2023-04-22T06:30:21.806Z,1192.00
2023-04-22T06:31:21.834Z,1172.00
2023-04-22T06:32:21.791Z,1212.00
2023-04-22T06:33:21.789Z,1276.00
2023-04-22T06:34:21.781Z,1332.00
2023-04-22T06:35:21.770Z,1368.00
2023-04-22T06:36:21.760Z,1408.00
2023-04-22T06:37:21.771Z,1444.00
2023-04-22T06:38:21.753Z,1440.00
2023-04-22T06:39:21.757Z,1420.00
2023-04-22T06:40:21.760Z,1388.00
2023-04-22T06:41:21.739Z,1256.00
2023-04-22T06:42:21.722Z,1136.00
2023-04-22T06:43:21.726Z,1048.00
2023-04-22T06:44:21.717Z,972.00
2023-04-22T06:45:21.717Z,924.00
2023-04-22T06:46:21.739Z,904.00
2023-04-22T06:47:21.724Z,888.00
2023-04-22T06:48:21.697Z,868.00
2023-04-22T06:49:21.692Z,852.00
2023-04-22T06:50:21.689Z,836.00
2023-04-22T06:51:21.689Z,836.00
2023-04-22T06:52:23.468Z,820.00
2023-04-22T06:53:21.671Z,836.00
2023-04-22T06:54:21.670Z,844.00
2023-04-22T06:55:21.692Z,864.00
2023-04-22T06:56:21.648Z,876.00
2023-04-22T06:57:21.667Z,872.00
2023-04-22T06:58:21.640Z,900.00
2023-04-22T06:59:21.633Z,904.00
2023-04-22T07:00:21.626Z,908.00
2023-04-22T07:01:21.642Z,924.00
2023-04-22T07:02:21.675Z,924.00
2023-04-22T07:03:21.722Z,928.00
2023-04-22T07:04:21.628Z,928.00
2023-04-22T07:05:21.607Z,936.00
2023-04-22T07:06:21.590Z,936.00
2023-04-22T07:07:21.628Z,936.00
2023-04-22T07:08:21.581Z,940.00
2023-04-22T07:09:21.574Z,956.00
2023-04-22T07:10:21.570Z,972.00
2023-04-22T07:11:21.569Z,984.00
2023-04-22T07:12:21.557Z,1000.00
2023-04-22T07:13:21.564Z,1004.00
2023-04-22T07:14:21.555Z,996.00
2023-04-22T07:15:21.543Z,996.00
2023-04-22T07:16:21.597Z,1008.00
2023-04-22T07:17:21.563Z,1036.00
2023-04-22T07:18:21.520Z,1072.00
2023-04-22T07:19:21.515Z,1124.00
2023-04-22T07:20:21.506Z,1168.00
2023-04-22T07:21:21.504Z,1200.00
2023-04-22T07:22:21.501Z,1228.00
2023-04-22T07:23:21.497Z,1252.00
2023-04-22T07:24:21.489Z,1268.00
2023-04-22T07:25:21.479Z,1268.00
2023-04-22T07:26:21.481Z,1276.00
2023-04-22T07:27:21.496Z,1292.00
2023-04-22T07:28:21.468Z,1296.00
2023-04-22T07:29:21.480Z,1292.00
2023-04-22T07:30:21.457Z,1276.00
2023-04-22T07:31:21.472Z,1268.00
2023-04-22T07:32:21.470Z,1232.00
2023-04-22T07:33:21.441Z,1196.00
2023-04-22T07:34:21.443Z,1200.00
2023-04-22T07:35:21.422Z,1224.00
2023-04-22T07:36:21.423Z,1240.00
2023-04-22T07:37:21.422Z,1252.00
2023-04-22T07:38:21.404Z,1272.00
2023-04-22T07:39:21.411Z,1272.00
2023-04-22T07:40:21.398Z,1268.00
2023-04-22T07:41:21.392Z,1256.00
2023-04-22T07:42:21.381Z,1248.00
2023-04-22T07:43:21.380Z,1224.00
2023-04-22T07:44:21.402Z,1200.00
2023-04-22T07:45:21.366Z,1176.00
2023-04-22T07:46:21.421Z,1156.00
2023-04-22T07:47:21.399Z,1140.00
2023-04-22T07:48:21.351Z,1132.00
2023-04-22T07:49:21.349Z,1140.00
2023-04-22T07:50:21.342Z,1152.00
2023-04-22T07:51:21.380Z,1204.00
2023-04-22T07:52:21.336Z,1236.00
2023-04-22T07:53:21.336Z,1272.00
2023-04-22T07:54:21.314Z,1308.00
2023-04-22T07:55:21.317Z,1332.00
2023-04-22T07:56:21.317Z,1360.00
2023-04-22T07:57:21.298Z,1396.00
2023-04-22T07:58:21.299Z,1424.00
2023-04-22T07:59:21.290Z,1448.00
2023-04-22T08:00:21.288Z,1448.00
2023-04-22T08:01:21.355Z,1452.00
2023-04-22T08:02:21.394Z,1476.00
2023-04-22T08:03:21.441Z,1500.00
2023-04-22T08:04:21.477Z,1532.00
2023-04-22T08:05:21.283Z,1572.00
2023-04-22T08:06:21.260Z,1644.00
2023-04-22T08:08:21.242Z,1840.00
2023-04-22T08:09:21.250Z,1936.00
2023-04-22T08:10:21.239Z,1988.00
2023-04-22T08:11:21.237Z,2020.00
2023-04-22T08:12:21.236Z,2044.00
2023-04-22T08:13:21.224Z,2076.00
2023-04-22T08:14:21.216Z,2100.00
2023-04-22T08:15:21.213Z,2124.00
2023-04-22T08:16:21.263Z,2148.00
2023-04-22T08:17:21.207Z,2172.00
2023-04-22T08:18:21.196Z,2180.00
2023-04-22T08:19:21.207Z,2188.00
2023-04-22T08:20:21.202Z,2248.00
2023-04-22T08:21:21.202Z,2328.00
2023-04-22T08:22:21.179Z,2392.00
2023-04-22T08:23:21.176Z,2420.00
2023-04-22T08:24:21.169Z,2440.00
2023-04-22T08:25:21.171Z,2552.00
2023-04-22T08:26:21.158Z,2684.00
2023-04-22T08:27:21.161Z,2796.00
2023-04-22T08:28:21.155Z,2788.00
2023-04-22T08:29:21.147Z,2792.00
2023-04-22T08:30:21.157Z,2736.00
2023-04-22T08:31:21.191Z,2888.00
2023-04-22T08:32:21.151Z,3056.00
2023-04-22T08:33:21.130Z,3212.00
2023-04-22T08:34:21.125Z,3348.00
2023-04-22T08:35:21.126Z,3388.00
2023-04-22T08:36:21.113Z,3432.00
2023-04-22T08:37:21.110Z,3484.00
2023-04-22T08:38:21.132Z,3604.00
2023-04-22T08:39:21.102Z,3664.00
2023-04-22T08:40:21.096Z,3660.00
2023-04-22T08:41:21.091Z,3576.00
2023-04-22T08:42:21.084Z,3468.00
2023-04-22T08:43:21.083Z,3332.00
2023-04-22T08:44:21.079Z,3200.00
2023-04-22T08:45:21.080Z,3044.00
2023-04-22T08:46:21.085Z,2904.00
2023-04-22T08:47:21.063Z,2820.00
2023-04-22T08:48:21.058Z,2780.00
2023-04-22T08:49:21.057Z,2784.00
2023-04-22T08:50:21.126Z,2776.00
2023-04-22T08:51:21.048Z,2768.00
2023-04-22T08:52:21.042Z,2764.00
2023-04-22T08:53:22.964Z,2768.00
2023-04-22T08:54:21.038Z,2772.00
2023-04-22T08:55:21.033Z,2800.00
2023-04-22T08:56:21.023Z,2820.00
2023-04-22T08:57:21.020Z,2844.00
2023-04-22T08:58:21.014Z,2860.00
2023-04-22T08:59:21.021Z,2868.00
2023-04-22T09:00:21.020Z,2896.00
2023-04-22T09:01:21.023Z,2940.00
2023-04-22T09:02:21.039Z,3000.00
2023-04-22T09:03:21.057Z,3048.00
2023-04-22T09:04:21.068Z,3112.00
2023-04-22T09:05:21.004Z,3148.00
2023-04-22T09:06:20.982Z,3164.00
2023-04-22T09:07:20.989Z,3120.00
2023-04-22T09:08:20.972Z,2832.00
2023-04-22T09:09:20.985Z,2788.00
2023-04-22T09:10:20.979Z,2752.00
2023-04-22T09:11:20.972Z,2676.00
2023-04-22T09:12:20.954Z,2672.00
2023-04-22T09:13:20.956Z,3092.00
2023-04-22T09:14:20.948Z,3236.00
2023-04-22T09:15:20.943Z,3312.00
2023-04-22T09:16:20.968Z,3476.00
2023-04-22T09:17:20.956Z,3568.00
2023-04-22T09:18:20.934Z,3616.00
2023-04-22T09:19:20.930Z,3684.00
2023-04-22T09:20:20.924Z,3772.00
2023-04-22T09:21:20.922Z,3932.00
2023-04-22T09:22:20.919Z,3996.00
2023-04-22T09:23:20.909Z,4156.00
2023-04-22T09:24:20.906Z,4376.00
2023-04-22T09:25:20.911Z,4544.00
2023-04-22T09:26:20.933Z,4640.00
2023-04-22T09:27:20.895Z,4896.00
2023-04-22T09:28:20.891Z,4860.00
2023-04-22T09:29:20.889Z,4696.00
2023-04-22T09:30:20.884Z,4520.00
2023-04-22T09:31:20.918Z,4760.00
2023-04-22T09:32:20.935Z,6528.00
2023-04-22T09:33:20.878Z,14420.00
2023-04-22T09:34:20.869Z,19904.00
2023-04-22T09:35:20.864Z,27264.00
2023-04-22T09:36:20.863Z,22720.00
2023-04-22T09:37:20.862Z,15168.00
2023-04-22T09:38:20.879Z,10336.00
2023-04-22T09:39:20.866Z,10568.00
2023-04-22T09:40:20.852Z,12420.00
2023-04-22T09:41:20.845Z,10916.00
2023-04-22T09:42:20.846Z,10420.00
2023-04-22T09:43:20.848Z,7732.00
2023-04-22T09:44:20.858Z,7036.00
2023-04-22T09:45:20.838Z,3788.00
2023-04-22T09:46:20.980Z,4424.00
2023-04-22T09:47:20.837Z,5908.00
2023-04-22T09:48:20.835Z,6568.00
2023-04-22T09:49:20.830Z,5456.00
2023-04-22T09:50:20.823Z,10632.00
2023-04-22T09:51:20.822Z,10340.00
2023-04-22T09:52:20.812Z,7876.00
2023-04-22T09:53:20.817Z,11204.00
2023-04-22T09:54:20.818Z,25088.00
2023-04-22T09:55:20.824Z,29728.00
2023-04-22T09:56:20.812Z,29184.00
2023-04-22T09:57:20.813Z,23776.00
2023-04-22T09:58:20.796Z,19360.00
2023-04-22T09:59:20.800Z,17600.00
2023-04-22T10:00:20.805Z,26528.00
2023-04-22T10:01:20.853Z,37696.00
2023-04-22T10:02:20.853Z,28064.00
2023-04-22T10:03:20.809Z,32640.00
2023-04-22T10:04:20.860Z,39776.00
2023-04-22T10:05:20.795Z,39264.00
2023-04-22T10:06:20.784Z,34944.00
2023-04-22T10:07:20.802Z,33664.00
2023-04-22T10:08:20.787Z,38144.00
2023-04-22T10:09:20.776Z,39392.00
2023-04-22T10:10:20.776Z,29440.00
2023-04-22T10:11:20.773Z,32736.00
2023-04-22T10:12:26.388Z,35936.00
2023-04-22T10:13:20.780Z,31616.00
2023-04-22T10:14:20.789Z,27360.00
2023-04-22T10:15:20.779Z,3996.00
2023-04-22T10:16:20.783Z,2816.00
2023-04-22T10:17:21.054Z,4216.00
2023-04-22T10:18:20.775Z,6168.00
2023-04-22T10:19:20.770Z,5564.00
2023-04-22T10:20:20.770Z,4028.00
2023-04-22T10:21:20.764Z,4708.00
2023-04-22T10:22:20.766Z,6788.00
2023-04-22T10:23:20.784Z,9028.00
2023-04-22T10:24:20.754Z,10648.00
2023-04-22T10:25:20.834Z,10448.00
2023-04-22T10:26:20.761Z,8636.00
2023-04-22T10:27:20.757Z,10744.00
2023-04-22T10:28:20.753Z,12072.00
2023-04-22T10:29:20.797Z,12476.00
2023-04-22T10:30:20.760Z,12232.00
2023-04-22T10:31:20.786Z,15284.00
2023-04-22T10:32:20.847Z,19136.00
2023-04-22T10:33:20.848Z,18560.00
2023-04-22T10:34:20.780Z,16384.00
2023-04-22T10:35:20.754Z,16128.00
2023-04-22T10:36:20.757Z,14112.00
2023-04-22T10:37:20.753Z,15500.00
2023-04-22T10:38:20.740Z,19904.00
2023-04-22T10:39:20.751Z,21408.00
2023-04-22T10:40:20.764Z,20992.00
2023-04-22T10:41:20.745Z,22528.00
2023-04-22T10:42:20.755Z,9472.00
2023-04-22T10:43:20.741Z,7896.00
2023-04-22T10:44:20.751Z,10644.00
2023-04-22T10:45:20.734Z,16480.00
2023-04-22T10:46:20.757Z,14680.00
2023-04-22T10:47:20.745Z,11376.00
2023-04-22T10:48:20.738Z,10200.00
2023-04-22T10:49:20.753Z,7356.00
2023-04-22T10:50:20.732Z,10336.00
2023-04-22T10:51:20.732Z,9464.00
2023-04-22T10:52:20.733Z,14092.00
2023-04-22T10:53:20.738Z,21184.00
2023-04-22T10:54:20.732Z,40640.00
2023-04-22T10:55:20.730Z,43040.00
2023-04-22T10:56:20.761Z,36512.00
2023-04-22T10:57:20.727Z,37024.00
2023-04-22T10:58:20.744Z,35744.00
2023-04-22T10:59:20.731Z,31712.00
2023-04-22T11:00:20.729Z,26464.00
2023-04-22T11:01:20.740Z,16992.00
2023-04-22T11:02:20.765Z,9012.00
2023-04-22T11:03:20.888Z,11884.00
2023-04-22T11:04:20.949Z,12304.00
2023-04-22T11:05:20.735Z,10520.00
2023-04-22T11:06:20.745Z,15008.00
2023-04-22T11:07:20.834Z,14940.00
2023-04-22T11:08:20.755Z,11212.00
2023-04-22T11:09:20.743Z,17504.00
2023-04-22T11:10:20.733Z,8584.00
2023-04-22T11:11:20.747Z,6572.00
2023-04-22T11:12:20.757Z,5884.00
2023-04-22T11:13:20.746Z,4936.00
2023-04-22T11:14:20.756Z,5168.00
2023-04-22T11:15:20.742Z,4872.00
2023-04-22T11:16:22.348Z,5892.00
2023-04-22T11:17:20.796Z,5220.00
2023-04-22T11:18:20.760Z,7644.00
2023-04-22T11:19:20.745Z,8408.00
2023-04-22T11:20:20.747Z,7112.00
2023-04-22T11:21:20.745Z,6456.00
2023-04-22T11:22:20.749Z,9896.00
2023-04-22T11:23:20.752Z,11332.00
2023-04-22T11:24:20.767Z,12292.00
2023-04-22T11:25:20.741Z,10788.00
2023-04-22T11:26:20.752Z,7716.00
2023-04-22T11:27:20.747Z,5316.00
2023-04-22T11:28:21.678Z,4816.00
2023-04-22T11:29:20.746Z,4852.00
2023-04-22T11:30:20.767Z,4772.00
2023-04-22T11:31:20.800Z,4508.00
2023-04-22T11:32:20.750Z,4188.00
2023-04-22T11:33:20.748Z,4008.00
2023-04-22T11:34:20.752Z,3848.00
2023-04-22T11:35:20.754Z,3712.00
2023-04-22T11:36:20.752Z,3684.00
2023-04-22T11:37:20.750Z,3668.00
2023-04-22T11:38:20.761Z,3504.00
2023-04-22T11:39:20.772Z,3404.00
2023-04-22T11:40:29.335Z,3260.00
2023-04-22T11:41:20.756Z,3232.00
2023-04-22T11:42:20.752Z,3132.00
2023-04-22T11:43:20.766Z,2988.00
2023-04-22T11:44:20.749Z,3020.00
2023-04-22T11:45:20.750Z,3036.00
2023-04-22T11:46:22.470Z,2908.00
2023-04-22T11:47:20.761Z,2876.00
2023-04-22T11:48:20.752Z,3008.00
2023-04-22T11:49:20.758Z,3056.00
2023-04-22T11:50:20.745Z,3108.00
2023-04-22T11:51:20.752Z,3200.00
2023-04-22T11:52:21.335Z,3232.00
2023-04-22T11:53:20.746Z,3112.00
2023-04-22T11:54:20.740Z,2868.00
2023-04-22T11:55:20.742Z,2752.00
2023-04-22T11:56:20.745Z,2700.00
2023-04-22T11:57:20.747Z,2604.00
2023-04-22T11:58:20.745Z,2728.00
2023-04-22T11:59:20.736Z,2924.00
2023-04-22T12:00:20.747Z,3188.00
2023-04-22T12:01:20.737Z,3636.00
2023-04-22T12:02:20.883Z,3916.00
2023-04-22T12:03:20.949Z,4316.00
2023-04-22T12:04:20.800Z,4320.00
2023-04-22T12:05:20.737Z,3972.00
2023-04-22T12:06:20.726Z,4104.00
2023-04-22T12:07:20.722Z,4344.00
2023-04-22T12:08:20.728Z,4292.00
2023-04-22T12:09:20.718Z,4180.00
2023-04-22T12:10:20.719Z,3956.00
2023-04-22T12:11:20.719Z,3756.00
2023-04-22T12:12:20.719Z,3228.00
2023-04-22T12:13:20.712Z,3048.00
2023-04-22T12:14:20.722Z,3176.00
2023-04-22T12:15:20.713Z,3284.00
2023-04-22T12:16:20.770Z,2708.00
2023-04-22T12:17:20.731Z,2596.00
2023-04-22T12:18:20.717Z,2600.00
2023-04-22T12:19:20.707Z,2400.00
2023-04-22T12:20:21.884Z,2316.00
2023-04-22T12:21:20.699Z,2536.00
2023-04-22T12:22:20.706Z,2496.00
2023-04-22T12:23:20.700Z,2504.00
2023-04-22T12:24:20.714Z,2492.00
2023-04-22T12:25:20.694Z,2292.00
2023-04-22T12:26:21.085Z,2284.00
2023-04-22T12:27:20.694Z,2492.00
2023-04-22T12:28:20.698Z,2712.00
2023-04-22T12:29:20.689Z,2844.00
2023-04-22T12:30:20.703Z,2928.00
2023-04-22T12:31:20.734Z,2816.00
2023-04-22T12:32:21.315Z,2956.00